Time;durP1;ratioP1;P1;durP2;ratioP2;P2;SDS_P1;SDS_P2;PMS_P1;PMS_P2;Temp;Humidity;BMP_temperature;BMP_pressure;BME280_temperature;BME280_humidity;BME280_pressure;Samples;Min_cycle;Max_cycle;Signal;HPM_P1;HPM_P2
2023/01/25 00:01:48;;;;;;;43.33;18.73;;;;;;;4.64;67.25;100795.25;5180885;28;20046;-70
2023/01/25 00:04:38;;;;;;;45.22;18.95;;;;;;;4.42;68.31;100805.75;5176485;28;20050;-69
2023/01/25 00:07:29;;;;;;;40.53;17.30;;;;;;;4.26;68.62;100804.63;5172673;28;20143;-70
2023/01/25 00:10:19;;;;;;;44.90;18.55;;;;;;;4.30;68.52;100800.97;5183983;28;20053;-69
2023/01/25 00:13:09;;;;;;;45.20;19.58;;;;;;;4.50;67.67;100798.41;5173769;28;20068;-69
2023/01/25 00:16:01;;;;;;;48.47;18.95;;;;;;;4.60;68.15;100791.91;5170938;28;20128;-69
2023/01/25 00:18:51;;;;;;;43.88;18.45;;;;;;;4.57;67.49;100781.50;5185193;28;20178;-69
2023/01/25 00:21:41;;;;;;;42.97;19.38;;;;;;;4.69;67.50;100788.03;5177838;28;20603;-69
2023/01/25 00:24:31;;;;;;;45.25;19.42;;;;;;;4.58;67.34;100783.22;5175333;28;20064;-68
2023/01/25 00:27:21;;;;;;;42.80;18.27;;;;;;;4.69;68.00;100788.88;5175330;28;20058;-68
2023/01/25 00:30:12;;;;;;;43.78;18.85;;;;;;;4.71;67.53;100781.78;5181504;28;20420;-69
2023/01/25 00:33:37;;;;;;;45.85;19.23;;;;;;;4.66;67.57;100778.47;5180677;28;20053;-69
2023/01/25 00:36:27;;;;;;;44.60;17.92;;;;;;;4.72;67.71;100786.13;5180617;28;20046;-68
2023/01/25 00:39:18;;;;;;;48.75;18.42;;;;;;;4.68;67.46;100776.66;5170912;28;20060;-69
2023/01/25 00:42:13;;;;;;;42.88;18.80;;;;;;;4.69;67.83;100788.03;5190832;28;20045;-68
2023/01/25 00:45:03;;;;;;;46.13;19.83;;;;;;;4.54;67.50;100768.50;5179447;28;20049;-69
2023/01/25 00:47:55;;;;;;;48.42;19.63;;;;;;;4.51;67.86;100791.41;5183920;28;20092;-68
2023/01/25 00:50:45;;;;;;;45.42;19.38;;;;;;;4.57;67.86;100784.13;5184977;28;20105;-68
2023/01/25 00:53:35;;;;;;;44.65;18.52;;;;;;;4.53;67.67;100772.00;5177035;28;20058;-68
2023/01/25 00:56:26;;;;;;;45.80;18.92;;;;;;;4.67;67.72;100779.38;5176311;28;20053;-68
2023/01/25 00:59:16;;;;;;;48.92;20.17;;;;;;;4.54;66.72;100746.63;5188259;28;20076;-68
2023/01/25 01:02:06;;;;;;;50.13;20.42;;;;;;;4.59;67.82;100753.38;5183789;28;20173;-69
2023/01/25 01:04:56;;;;;;;45.40;19.15;;;;;;;4.67;68.16;100759.19;5180122;28;20058;-69
2023/01/25 01:07:49;;;;;;;49.40;18.80;;;;;;;4.59;67.77;100756.00;5179929;28;20522;-69
2023/01/25 01:10:41;;;;;;;49.33;20.48;;;;;;;4.76;67.80;100764.97;5186832;28;20057;-71
2023/01/25 01:13:32;;;;;;;48.92;20.00;;;;;;;4.70;66.95;100766.06;5176878;28;20053;-70
2023/01/25 01:16:22;;;;;;;50.63;20.00;;;;;;;4.43;68.07;100754.91;5175153;28;20065;-70
2023/01/25 01:19:14;;;;;;;55.72;20.50;;;;;;;4.07;68.43;100768.56;5189843;28;20065;-70
2023/01/25 01:22:04;;;;;;;50.75;19.88;;;;;;;4.12;69.62;100744.78;5177919;28;20053;-69
2023/01/25 01:24:54;;;;;;;51.28;20.02;;;;;;;4.11;68.73;100771.97;5167203;28;20175;-70
2023/01/25 01:27:44;;;;;;;56.50;21.23;;;;;;;4.26;68.31;100762.63;5180701;28;20048;-70
2023/01/25 01:30:35;;;;;;;53.03;20.23;;;;;;;3.84;69.19;100740.63;5179543;28;20752;-70
2023/01/25 01:33:26;;;;;;;50.70;20.17;;;;;;;4.15;68.21;100773.56;5171669;28;20489;-70
2023/01/25 01:36:19;;;;;;;59.70;21.00;;;;;;;4.02;69.15;100775.78;5173555;28;20041;-70
2023/01/25 01:39:10;;;;;;;46.50;19.90;;;;;;;4.23;68.15;100774.94;5186518;28;20046;-69
2023/01/25 01:42:00;;;;;;;44.72;19.35;;;;;;;4.48;67.84;100771.38;5174924;28;20504;-70
2023/01/25 01:44:52;;;;;;;48.67;19.83;;;;;;;4.39;68.05;100774.34;5178877;28;20053;-70
2023/01/25 01:47:47;;;;;;;45.60;19.23;;;;;;;4.53;67.06;100766.75;5177564;28;20076;-70
2023/01/25 01:50:37;;;;;;;50.08;19.63;;;;;;;4.49;67.90;100770.44;5187490;28;20058;-70
2023/01/25 01:53:31;;;;;;;48.95;19.25;;;;;;;4.45;68.14;100774.09;5178670;28;20618;-70
2023/01/25 01:56:26;;;;;;;;;;;;;;;4.51;67.95;100775.66;5175979;28;20384;-69
2023/01/25 01:59:25;;;;;;;50.00;19.08;;;;;;;4.54;68.30;100767.66;5179768;28;20001;-69
2023/01/25 02:02:15;;;;;;;55.03;20.23;;;;;;;4.21;68.37;100771.53;5171924;28;20089;-69
2023/01/25 02:05:10;;;;;;;52.70;19.77;;;;;;;4.35;68.61;100772.78;5166530;28;20073;-69
2023/01/25 02:08:02;;;;;;;47.70;19.13;;;;;;;4.12;68.19;100760.53;5195696;28;20081;-69
2023/01/25 02:10:54;;;;;;;49.85;19.98;;;;;;;4.15;68.92;100765.66;5174827;28;20050;-69
2023/01/25 02:13:47;;;;;;;50.80;20.30;;;;;;;4.34;68.84;100761.41;5177622;28;20092;-72
2023/01/25 02:16:38;;;;;;;56.08;20.17;;;;;;;3.98;68.20;100703.34;5178627;28;20058;-68
2023/01/25 02:19:59;;;;;;;52.70;19.88;;;;;;;4.19;69.26;100762.00;5189711;28;20088;-68
2023/01/25 02:22:59;;;;;;;43.70;18.42;;;;;;;4.35;69.28;100760.50;5148742;28;20420;-69
2023/01/25 02:25:50;;;;;;;48.10;19.90;;;;;;;4.39;68.33;100766.47;5178339;28;20053;-71
2023/01/25 02:28:51;;;;;;;49.72;19.23;;;;;;;4.38;68.76;100755.13;5181868;28;20057;-69
2023/01/25 02:31:46;;;;;;;54.45;20.55;;;;;;;4.33;68.69;100733.41;5175797;28;20077;-71
2023/01/25 02:34:36;;;;;;;50.83;20.38;;;;;;;4.65;67.93;100761.00;5176067;28;20124;-69
2023/01/25 02:37:27;;;;;;;53.63;21.15;;;;;;;4.40;68.54;100752.41;5186058;28;20052;-68
2023/01/25 02:40:21;;;;;;;48.80;19.63;;;;;;;4.42;68.53;100746.19;5173293;28;20046;-68
2023/01/25 02:43:12;;;;;;;52.30;20.00;;;;;;;4.32;68.89;100742.22;5161750;28;20453;-71
2023/01/25 02:46:17;;;;;;;56.38;20.95;;;;;;;4.38;68.78;100744.59;5163960;28;20496;-71
2023/01/25 02:49:08;;;;;;;50.47;20.42;;;;;;;4.00;69.43;100691.84;5183009;28;20500;-72
2023/01/25 02:51:58;;;;;;;49.45;20.08;;;;;;;4.34;69.14;100736.91;5172590;28;20165;-71
2023/01/25 02:54:49;;;;;;;49.58;20.30;;;;;;;4.43;69.06;100736.53;5176729;28;20058;-71
2023/01/25 02:57:40;;;;;;;55.20;20.58;;;;;;;4.48;68.73;100737.22;5182350;28;20064;-71
2023/01/25 03:00:30;;;;;;;47.33;19.73;;;;;;;4.38;69.03;100725.38;5179702;28;20058;-71
2023/01/25 03:03:21;;;;;;;53.90;20.77;;;;;;;4.33;68.53;100728.16;5171783;28;20088;-70
2023/01/25 03:06:11;;;;;;;51.22;20.00;;;;;;;4.09;69.29;100724.75;5158593;28;20488;-70
2023/01/25 03:09:04;;;;;;;49.90;20.42;;;;;;;3.98;69.40;100690.22;5174570;28;20055;-72
2023/01/25 03:11:55;;;;;;;47.65;19.55;;;;;;;4.25;69.71;100709.25;5170648;28;20516;-69
2023/01/25 03:14:45;;;;;;;43.85;17.85;;;;;;;4.29;69.23;100709.97;5159615;28;20042;-69
2023/01/25 03:17:36;;;;;;;44.78;19.45;;;;;;;4.03;69.61;100714.50;5177900;28;20054;-68
2023/01/25 03:20:26;;;;;;;51.08;20.20;;;;;;;4.03;69.30;100662.00;5172103;28;20665;-69
2023/01/25 03:23:16;;;;;;;47.63;18.70;;;;;;;4.31;68.76;100702.91;5175084;28;20212;-69
2023/01/25 03:26:09;;;;;;;48.70;19.48;;;;;;;4.35;68.78;100709.75;5172539;28;20053;-68
2023/01/25 03:29:04;;;;;;;46.70;17.75;;;;;;;4.27;69.81;100707.41;5183000;28;20045;-69
2023/01/25 03:31:56;;;;;;;49.25;17.92;;;;;;;4.31;69.33;100709.00;5169871;28;20404;-69
2023/01/25 03:34:47;;;;;;;48.03;17.90;;;;;;;4.35;69.31;100712.38;5174215;28;20041;-69
2023/01/25 03:37:39;;;;;;;44.40;18.35;;;;;;;4.19;69.45;100680.63;5181057;28;20072;-70
2023/01/25 03:40:29;;;;;;;45.17;17.58;;;;;;;4.46;69.29;100707.53;5186418;28;20136;-69
2023/01/25 03:43:20;;;;;;;42.50;17.67;;;;;;;4.29;69.03;100702.09;5173568;28;20619;-70
2023/01/25 03:46:13;;;;;;;41.53;16.10;;;;;;;4.64;68.11;100703.28;5171183;28;20050;-69
2023/01/25 03:49:04;;;;;;;45.03;16.98;;;;;;;4.50;68.47;100706.47;5183216;28;20171;-69
2023/01/25 03:51:56;;;;;;;41.38;16.48;;;;;;;4.46;67.92;100692.59;5156937;28;20157;-69
2023/01/25 03:54:55;;;;;;;36.13;15.30;;;;;;;4.42;68.28;100679.69;5162625;28;20077;-72
2023/01/25 03:57:47;;;;;;;41.25;16.17;;;;;;;4.52;68.12;100704.66;5179977;28;20049;-69
2023/01/25 04:00:38;;;;;;;38.67;16.15;;;;;;;4.47;68.55;100699.59;5172591;28;20132;-69
2023/01/25 04:03:28;;;;;;;40.83;15.45;;;;;;;4.18;68.99;100684.16;5179972;28;20077;-71
2023/01/25 04:06:21;;;;;;;39.55;14.40;;;;;;;4.36;68.70;100687.81;5176574;28;20129;-70
2023/01/25 04:09:13;;;;;;;37.15;14.80;;;;;;;4.61;68.10;100700.78;5183287;28;20111;-70
2023/01/25 04:12:08;;;;;;;36.33;14.65;;;;;;;4.42;68.50;100685.78;5185486;28;20061;-69
2023/01/25 04:15:00;;;;;;;34.38;14.25;;;;;;;4.50;68.07;100684.59;5173019;28;20045;-69
2023/01/25 04:17:51;;;;;;;31.27;13.50;;;;;;;4.56;67.78;100693.09;5182696;28;20046;-70
2023/01/25 04:20:45;;;;;;;28.67;14.13;;;;;;;4.57;67.93;100684.31;5187450;28;20061;-69
2023/01/25 04:23:35;;;;;;;32.15;14.18;;;;;;;4.47;67.74;100682.97;5177535;28;20207;-69
2023/01/25 04:26:25;;;;;;;34.50;15.43;;;;;;;4.39;67.77;100674.56;5177211;28;20123;-69
2023/01/25 04:29:20;;;;;;;58.72;27.52;;;;;;;4.46;68.10;100684.72;5186196;28;20058;-70
2023/01/25 04:32:28;;;;;;;33.17;14.60;;;;;;;4.41;67.09;100678.84;5188342;28;20061;-69
2023/01/25 04:35:20;;;;;;;30.83;13.25;;;;;;;4.42;67.90;100670.03;5178491;28;20053;-70
2023/01/25 04:38:12;;;;;;;27.42;12.82;;;;;;;4.24;67.99;100653.25;5183147;28;20123;-70
2023/01/25 04:41:04;;;;;;;30.80;14.30;;;;;;;4.15;67.32;100666.75;5181911;28;20444;-68
2023/01/25 04:43:55;;;;;;;33.90;13.50;;;;;;;4.08;68.27;100675.81;5184877;28;20061;-70
2023/01/25 04:46:47;;;;;;;26.60;12.57;;;;;;;3.97;67.61;100671.00;5184896;28;20068;-69
2023/01/25 04:49:37;;;;;;;27.70;12.13;;;;;;;3.87;68.53;100676.63;5191455;28;20064;-70
2023/01/25 04:52:28;;;;;;;23.38;11.23;;;;;;;3.69;68.90;100663.31;5164351;28;20051;-71
2023/01/25 04:55:18;;;;;;;22.67;11.20;;;;;;;3.23;69.07;100661.59;5164326;28;20054;-70
2023/01/25 04:58:09;;;;;;;26.40;12.25;;;;;;;3.60;69.17;100682.03;5187866;28;20045;-69
2023/01/25 05:01:01;;;;;;;23.65;11.77;;;;;;;3.72;68.42;100651.88;5184178;28;20445;-70
2023/01/25 05:03:51;;;;;;;26.15;12.15;;;;;;;3.33;69.39;100665.56;5191179;28;20523;-71
2023/01/25 05:06:56;;;;;;;25.38;12.18;;;;;;;3.38;68.90;100678.50;5201155;28;20049;-68
2023/01/25 05:09:48;;;;;;;23.77;11.32;;;;;;;3.38;69.19;100673.25;5195932;28;20427;-69
2023/01/25 05:12:43;;;;;;;20.40;10.65;;;;;;;3.65;68.84;100667.00;5194110;28;20451;-70
2023/01/25 05:15:35;;;;;;;24.52;10.90;;;;;;;4.12;66.42;100666.03;5180646;28;20535;-71
2023/01/25 05:18:27;;;;;;;28.67;13.32;;;;;;;3.87;67.77;100674.00;5178708;28;20679;-70
2023/01/25 05:24:44;;;;;;;24.67;11.95;;;;;;;3.42;69.33;100665.25;5176185;28;20054;-70
2023/01/25 05:27:36;;;;;;;25.45;11.30;;;;;;;3.49;68.19;100648.34;5174304;28;20176;-69
2023/01/25 05:30:57;;;;;;;23.67;11.68;;;;;;;3.79;68.54;100676.09;5184776;28;20143;-70
2023/01/25 05:33:49;;;;;;;22.70;10.75;;;;;;;3.68;69.05;100656.38;5170080;28;20057;-70
2023/01/25 05:36:41;;;;;;;26.45;11.02;;;;;;;3.81;67.55;100662.00;5183069;28;20045;-70
2023/01/25 05:39:32;;;;;;;20.63;10.32;;;;;;;4.21;67.26;100668.28;5169505;28;20046;-69
2023/01/25 05:42:22;;;;;;;22.77;10.40;;;;;;;4.27;67.13;100661.91;5177424;28;20501;-70
2023/01/25 05:45:13;;;;;;;21.63;10.38;;;;;;;4.28;66.81;100664.50;5173879;28;20065;-70
2023/01/25 05:48:06;;;;;;;25.00;11.77;;;;;;;4.29;66.95;100653.06;5174471;28;20065;-70
2023/01/25 05:50:57;;;;;;;23.35;11.07;;;;;;;4.35;66.67;100651.97;5175716;28;20072;-70
2023/01/25 05:53:47;;;;;;;23.13;10.48;;;;;;;4.37;66.39;100655.38;5172445;28;20053;-69
2023/01/25 05:56:38;;;;;;;21.25;10.10;;;;;;;4.37;66.48;100652.75;5187146;28;20064;-68
2023/01/25 05:59:28;;;;;;;20.90;10.10;;;;;;;4.32;66.16;100644.22;5180510;28;20052;-69
2023/01/25 06:02:19;;;;;;;37.28;16.15;;;;;;;4.20;66.80;100650.81;5174048;28;20053;-69
2023/01/25 06:05:09;;;;;;;26.50;11.52;;;;;;;4.30;65.69;100633.75;5160487;28;20050;-68
2023/01/25 06:08:00;;;;;;;27.95;13.82;;;;;;;4.39;66.97;100643.03;5177509;28;20069;-68
2023/01/25 06:11:08;;;;;;;26.90;13.95;;;;;;;4.20;65.70;100640.31;5175884;28;20057;-68
2023/01/25 06:14:00;;;;;;;21.50;11.57;;;;;;;4.16;66.46;100641.34;5163367;28;20049;-71
2023/01/25 06:16:49;;;;;;;26.02;11.32;;;;;;;4.15;66.51;100627.38;5168227;28;20065;-70
2023/01/25 06:20:06;;;;;;;21.40;10.63;;;;;;;4.08;66.18;100623.31;5185640;28;20056;-71
2023/01/25 06:22:58;;;;;;;26.33;11.15;;;;;;;4.22;66.77;100636.72;5181612;28;20127;-70
2023/01/25 06:25:49;;;;;;;18.98;9.95;;;;;;;3.79;67.08;100640.22;5177510;28;20049;-69
2023/01/25 06:28:39;;;;;;;22.88;9.98;;;;;;;4.01;66.82;100642.84;5175924;28;20065;-70
2023/01/25 06:31:29;;;;;;;22.80;11.20;;;;;;;4.16;66.06;100636.09;5179497;28;20056;-70
2023/01/25 06:34:21;;;;;;;23.70;10.63;;;;;;;3.89;66.91;100633.69;5187619;28;20060;-71
2023/01/25 06:37:12;;;;;;;21.40;10.70;;;;;;;3.94;66.93;100639.63;5176763;28;20050;-68
2023/01/25 06:40:02;;;;;;;21.25;10.90;;;;;;;4.18;66.38;100640.38;5176567;28;20119;-71
2023/01/25 06:42:52;;;;;;;25.10;11.52;;;;;;;4.02;65.89;100639.31;5175382;28;20064;-70
2023/01/25 06:45:42;;;;;;;20.45;9.52;;;;;;;4.15;66.42;100631.78;5175759;28;20122;-71
2023/01/25 06:48:33;;;;;;;17.52;8.80;;;;;;;4.25;66.24;100635.75;5184182;28;20054;-70
2023/01/25 06:51:23;;;;;;;18.52;9.27;;;;;;;4.17;66.29;100625.56;5177816;28;20066;-70
2023/01/25 06:54:13;;;;;;;17.90;9.05;;;;;;;4.28;66.38;100624.25;5173606;28;20141;-70
2023/01/25 06:57:03;;;;;;;17.67;8.45;;;;;;;4.11;66.48;100623.19;5171460;28;20061;-70
2023/01/25 06:59:54;;;;;;;17.65;8.32;;;;;;;3.90;67.18;100626.66;5187726;28;20134;-69
2023/01/25 07:02:44;;;;;;;16.67;8.27;;;;;;;4.14;66.24;100627.44;5174264;28;20107;-69
2023/01/25 07:05:34;;;;;;;19.05;9.00;;;;;;;4.22;66.31;100623.59;5177511;28;20049;-69
2023/01/25 07:08:25;;;;;;;19.42;9.05;;;;;;;4.26;66.42;100620.84;5135494;28;20066;-70
2023/01/25 07:11:17;;;;;;;21.35;9.75;;;;;;;4.31;66.41;100619.72;5154003;28;20073;-69
2023/01/25 07:14:08;;;;;;;23.40;10.95;;;;;;;4.14;65.71;100604.69;5159577;28;20108;-70
2023/01/25 07:16:58;;;;;;;25.08;11.13;;;;;;;3.88;66.42;100604.91;5159028;28;20053;-68
2023/01/25 07:19:51;;;;;;;20.50;10.63;;;;;;;4.21;66.60;100614.00;5158490;28;20516;-70
2023/01/25 07:22:42;;;;;;;29.98;12.45;;;;;;;4.08;66.23;100610.19;5159045;28;20076;-67
2023/01/25 07:25:32;;;;;;;22.75;10.20;;;;;;;4.24;66.20;100624.38;5154073;28;20116;-67
2023/01/25 07:28:22;;;;;;;22.50;10.63;;;;;;;3.93;66.40;100606.41;5152499;28;20489;-67
2023/01/25 07:31:13;;;;;;;23.35;10.52;;;;;;;4.05;67.37;100615.56;5164912;28;20072;-69
2023/01/25 07:34:04;;;;;;;24.55;10.95;;;;;;;4.14;66.47;100609.94;5153529;28;20053;-68
2023/01/25 07:36:54;;;;;;;25.00;10.43;;;;;;;3.98;66.76;100601.81;5150349;28;20090;-70
2023/01/25 07:39:48;;;;;;;21.63;10.25;;;;;;;4.19;66.68;100597.44;5149828;28;20057;-69
2023/01/25 07:42:38;;;;;;;35.65;13.48;;;;;;;4.23;65.31;100598.19;5153619;28;20069;-68
2023/01/25 07:45:35;;;;;;;33.53;13.13;;;;;;;3.85;66.07;100595.38;5148713;28;20054;-69
2023/01/25 07:48:25;;;;;;;26.02;11.55;;;;;;;3.91;66.08;100597.75;5159094;28;20058;-69
2023/01/25 07:51:28;;;;;;;27.95;11.98;;;;;;;3.97;66.37;100592.25;5155059;28;20062;-68
2023/01/25 07:54:19;;;;;;;;;;;;;;;3.85;66.44;100605.00;5156485;28;20553;-68
2023/01/25 07:57:09;;;;;;;24.42;11.65;;;;;;;4.13;65.67;100604.72;5158000;28;19936;-68
2023/01/25 08:00:00;;;;;;;24.45;11.95;;;;;;;4.04;66.61;100605.09;5144617;28;20058;-69
2023/01/25 08:02:51;;;;;;;19.98;9.52;;;;;;;4.18;66.00;100605.41;5151586;28;20064;-67
2023/01/25 08:05:44;;;;;;;20.20;9.05;;;;;;;4.22;65.76;100613.09;5161151;28;20465;-68
2023/01/25 08:08:40;;;;;;;20.88;9.50;;;;;;;4.32;65.74;100620.56;5156095;28;20057;-68
2023/01/25 08:11:30;;;;;;;;;;;;;;;4.29;65.24;100623.34;5160086;28;20064;-69
2023/01/25 08:14:21;;;;;;;19.10;8.32;;;;;;;4.03;66.25;100612.13;5153065;28;19933;-69
2023/01/25 08:17:11;;;;;;;18.60;8.40;;;;;;;4.20;66.00;100601.78;5146472;28;20076;-70
2023/01/25 08:20:01;;;;;;;19.25;9.43;;;;;;;3.69;66.46;100623.13;5145038;28;20053;-70
2023/01/25 08:22:51;;;;;;;20.35;8.60;;;;;;;3.63;67.59;100611.09;5144522;28;20467;-68
2023/01/25 08:25:42;;;;;;;20.45;9.00;;;;;;;4.28;65.20;100624.25;5154884;28;20065;-66
2023/01/25 08:28:32;;;;;;;17.73;8.90;;;;;;;4.26;65.40;100608.56;5157482;28;20066;-69
2023/01/25 08:31:29;;;;;;;20.20;8.80;;;;;;;4.18;65.77;100619.38;5160232;28;20553;-67
2023/01/25 08:34:19;;;;;;;17.58;9.02;;;;;;;4.12;65.49;100603.88;5153147;28;20073;-66
2023/01/25 08:37:09;;;;;;;18.13;9.15;;;;;;;3.98;65.58;100612.31;5159519;28;20054;-67
2023/01/25 08:40:00;;;;;;;22.42;9.90;;;;;;;4.22;65.84;100604.34;5157898;28;20188;-68
2023/01/25 08:42:50;;;;;;;17.20;8.60;;;;;;;3.88;66.57;100602.28;5157707;28;20049;-68
2023/01/25 08:45:40;;;;;;;21.58;8.88;;;;;;;4.26;65.59;100597.19;5152878;28;20050;-68
2023/01/25 08:48:31;;;;;;;18.90;9.45;;;;;;;4.16;64.70;100583.59;5152581;28;20073;-68
2023/01/25 08:51:22;;;;;;;21.55;9.43;;;;;;;3.90;65.45;100587.28;5155950;28;20151;-68
2023/01/25 08:54:12;;;;;;;21.67;9.13;;;;;;;4.30;65.02;100567.25;5163648;28;20179;-69
2023/01/25 08:57:05;;;;;;;20.30;8.55;;;;;;;4.22;64.71;100571.06;5164297;28;20065;-69
2023/01/25 08:59:55;;;;;;;20.92;8.93;;;;;;;4.39;64.43;100587.88;5151732;28;20674;-69
2023/01/25 09:02:45;;;;;;;18.45;9.25;;;;;;;4.01;64.99;100579.84;5148977;28;21411;-67
2023/01/25 09:05:38;;;;;;;16.90;9.00;;;;;;;3.91;66.04;100582.00;5155245;28;20566;-69
2023/01/25 09:08:29;;;;;;;19.65;9.15;;;;;;;3.88;66.46;100579.50;5157252;28;20563;-68
2023/01/25 09:11:21;;;;;;;19.02;8.48;;;;;;;4.32;65.18;100578.56;5160639;28;20508;-67
2023/01/25 09:14:11;;;;;;;21.88;9.80;;;;;;;4.31;64.78;100576.88;5169698;28;20084;-66
2023/01/25 09:17:01;;;;;;;20.63;9.40;;;;;;;4.20;65.09;100580.78;5157736;28;20057;-70
2023/01/25 09:19:51;;;;;;;20.30;8.85;;;;;;;3.69;65.84;100582.00;5161125;28;20426;-67
2023/01/25 09:22:41;;;;;;;18.38;8.82;;;;;;;3.73;66.18;100583.59;5154487;28;20046;-69
2023/01/25 09:25:31;;;;;;;21.52;9.40;;;;;;;4.16;65.23;100571.31;5152340;28;20049;-69
2023/01/25 09:28:22;;;;;;;19.80;9.55;;;;;;;3.94;65.14;100565.25;5146155;28;20058;-69
2023/01/25 09:31:12;;;;;;;23.42;9.38;;;;;;;4.17;65.51;100567.81;5153032;28;20177;-68
2023/01/25 09:34:47;;;;;;;;;;;;;;;3.91;66.46;100574.13;5155447;28;20042;-70
2023/01/25 09:37:37;;;;;;;19.83;9.80;;;;;;;3.54;67.56;100564.25;5152236;28;20332;-68
2023/01/25 09:40:35;;;;;;;23.55;9.82;;;;;;;4.09;65.71;100571.66;5154331;28;20045;-70
2023/01/25 09:43:46;;;;;;;18.13;8.38;;;;;;;4.08;65.16;100573.44;5153403;28;20061;-70
2023/01/25 09:46:49;;;;;;;22.05;9.25;;;;;;;3.61;66.90;100573.59;5150428;28;20051;-69
2023/01/25 09:49:41;;;;;;;20.00;9.80;;;;;;;4.01;65.94;100574.63;5150045;28;20136;-67
2023/01/25 09:52:56;;;;;;;21.20;9.13;;;;;;;4.42;65.02;100572.84;5153041;28;20342;-72
2023/01/25 09:55:52;;;;;;;19.73;9.85;;;;;;;4.39;65.11;100537.97;5152060;28;20054;-68
2023/01/25 09:58:46;;;;;;;23.35;9.00;;;;;;;4.53;63.93;100561.88;5152316;28;20065;-73
2023/01/25 10:01:42;;;;;;;20.83;9.30;;;;;;;4.08;64.34;100557.69;5154063;28;20128;-67
2023/01/25 10:04:43;;;;;;;19.75;9.40;;;;;;;4.60;64.51;100555.44;5162636;28;20089;-68
2023/01/25 10:07:54;;;;;;;17.42;8.93;;;;;;;4.70;64.40;100555.88;5164324;28;20102;-67
2023/01/25 10:10:49;;;;;;;21.48;9.13;;;;;;;4.53;63.32;100559.25;5164559;28;20144;-68
2023/01/25 10:13:39;;;;;;;22.25;9.98;;;;;;;4.46;63.93;100555.19;5158893;28;20115;-68
2023/01/25 10:16:44;;;;;;;21.30;9.88;;;;;;;4.64;64.21;100557.00;5161841;28;20104;-68
2023/01/25 10:20:01;;;;;;;19.08;9.93;;;;;;;4.61;63.67;100551.88;5166145;28;20191;-67
2023/01/25 10:23:23;;;;;;;17.33;9.15;;;;;;;4.12;65.10;100545.28;5160525;28;20552;-66
2023/01/25 10:26:25;;;;;;;19.70;9.20;;;;;;;4.61;64.37;100537.91;5162891;28;20054;-64
2023/01/25 10:29:21;;;;;;;20.73;9.30;;;;;;;4.68;63.72;100545.44;5159867;28;20096;-68
2023/01/25 10:32:18;;;;;;;19.75;9.55;;;;;;;4.81;63.39;100540.50;5159853;28;20049;-66
2023/01/25 10:35:20;;;;;;;22.95;9.43;;;;;;;4.71;64.12;100540.06;5159015;28;20128;-68
2023/01/25 10:38:41;;;;;;;22.95;10.32;;;;;;;4.65;63.39;100537.69;5158727;28;20049;-67
2023/01/25 10:41:40;;;;;;;21.30;9.05;;;;;;;4.78;63.84;100530.13;5161559;28;20564;-67
2023/01/25 10:44:35;;;;;;;21.50;9.65;;;;;;;4.86;63.67;100532.38;5154679;28;20215;-67
2023/01/25 10:47:36;;;;;;;82.00;32.78;;;;;;;4.77;62.40;100527.53;5149100;28;20125;-67
2023/01/25 10:50:41;;;;;;;24.25;10.27;;;;;;;4.91;63.16;100520.75;5146828;28;20050;-67
2023/01/25 10:53:42;;;;;;;28.23;11.93;;;;;;;4.82;63.22;100515.06;5150049;28;20132;-67
2023/01/25 10:56:34;;;;;;;19.73;9.77;;;;;;;4.79;63.50;100516.03;5150018;28;20455;-67
2023/01/25 10:59:27;;;;;;;22.73;11.18;;;;;;;4.80;63.89;100507.25;5144631;28;20061;-67
2023/01/25 11:02:43;;;;;;;22.80;9.80;;;;;;;4.93;63.52;100513.66;5151390;28;20522;-68
2023/01/25 11:05:36;;;;;;;24.08;10.00;;;;;;;4.92;62.79;100511.09;5160849;28;20127;-67
2023/01/25 11:08:29;;;;;;;21.35;9.13;;;;;;;4.87;63.25;100513.09;5145927;28;20043;-67
2023/01/25 11:11:24;;;;;;;19.88;9.55;;;;;;;4.96;63.41;100510.00;5149715;28;20197;-67
2023/01/25 11:14:16;;;;;;;22.75;9.38;;;;;;;4.93;63.05;100503.16;5159649;28;20054;-68
2023/01/25 11:17:24;;;;;;;21.20;9.52;;;;;;;4.86;63.14;100491.19;5156489;28;20061;-67
2023/01/25 11:20:16;;;;;;;22.42;9.73;;;;;;;4.90;62.96;100500.66;5153919;28;20107;-67
2023/01/25 11:23:23;;;;;;;21.48;9.00;;;;;;;4.89;62.61;100492.81;5150071;28;20054;-68
2023/01/25 11:26:18;;;;;;;22.48;10.43;;;;;;;4.67;63.30;100478.06;5147972;28;20064;-68
2023/01/25 11:29:17;;;;;;;23.50;11.30;;;;;;;4.72;62.58;100455.03;5152932;28;20192;-68
2023/01/25 11:32:20;;;;;;;20.80;8.95;;;;;;;3.99;63.22;100488.03;5156276;28;21550;-67
2023/01/25 11:35:12;;;;;;;21.73;9.13;;;;;;;3.94;63.76;100476.91;5161555;28;20124;-68
2023/01/25 11:38:15;;;;;;;21.23;9.07;;;;;;;4.51;63.26;100474.41;5161503;28;20086;-67
2023/01/25 11:41:25;;;;;;;23.70;11.15;;;;;;;4.57;62.84;100465.38;5175865;28;20069;-69
2023/01/25 11:44:57;;;;;;;27.98;11.65;;;;;;;4.81;63.20;100458.19;5159687;28;20064;-67
2023/01/25 11:47:59;;;;;;;21.27;9.23;;;;;;;4.78;62.90;100458.31;5160003;28;20050;-67
2023/01/25 11:51:03;;;;;;;20.67;8.73;;;;;;;4.43;63.41;100443.22;5160468;28;20638;-67
2023/01/25 11:54:03;;;;;;;21.75;9.32;;;;;;;4.63;63.11;100436.22;5155890;28;20077;-69
2023/01/25 11:57:23;;;;;;;21.10;9.18;;;;;;;4.77;62.71;100440.81;5161332;28;20050;-67
2023/01/25 12:00:22;;;;;;;20.48;9.05;;;;;;;4.79;63.23;100426.69;5156762;28;20062;-67
2023/01/25 12:03:17;;;;;;;19.73;9.65;;;;;;;4.92;62.80;100421.72;5156458;28;20069;-67
2023/01/25 12:06:34;;;;;;;23.27;10.43;;;;;;;4.61;63.11;100417.91;5159187;28;20179;-69
2023/01/25 12:09:43;;;;;;;34.95;17.70;;;;;;;4.75;62.58;100388.34;5155885;28;20107;-67
2023/01/25 12:12:52;;;;;;;26.15;11.07;;;;;;;4.82;62.22;100394.16;5150339;28;20417;-68
2023/01/25 12:15:51;;;;;;;25.10;10.75;;;;;;;4.51;62.97;100382.50;5154356;28;20049;-69
2023/01/25 12:18:54;;;;;;;50.13;24.48;;;;;;;4.59;62.97;100390.84;5150482;28;20053;-69
2023/01/25 12:22:16;;;;;;;41.25;18.42;;;;;;;4.44;63.69;100370.56;5153810;28;20136;-68
2023/01/25 12:25:45;;;;;;;26.65;12.70;;;;;;;4.53;65.25;100364.88;5164262;28;20143;-67
2023/01/25 12:28:43;;;;;;;21.63;10.32;;;;;;;4.74;63.50;100359.53;5167667;28;20695;-68
2023/01/25 12:31:41;;;;;;;25.80;11.52;;;;;;;4.69;62.83;100339.56;5170154;28;20496;-67
2023/01/25 12:34:36;;;;;;;25.17;10.57;;;;;;;4.81;62.76;100342.56;5179810;28;20060;-68
2023/01/25 12:37:38;;;;;;;53.80;22.40;;;;;;;4.87;62.13;100344.88;5178922;28;20054;-70
2023/01/25 12:40:57;;;;;;;46.67;21.52;;;;;;;4.78;63.02;100325.16;5170446;28;20675;-69
2023/01/25 12:43:53;;;;;;;26.73;11.25;;;;;;;4.38;63.26;100334.09;5181805;28;20419;-69
2023/01/25 12:46:54;;;;;;;46.88;24.42;;;;;;;4.67;62.56;100332.72;5189160;28;20053;-70
2023/01/25 12:49:51;;;;;;;38.95;20.45;;;;;;;4.75;63.47;100321.81;5164421;28;20065;-67
2023/01/25 12:52:49;;;;;;;28.40;13.68;;;;;;;4.74;64.02;100317.50;5158148;28;20065;-67
2023/01/25 12:55:40;;;;;;;30.90;13.95;;;;;;;4.61;62.96;100290.97;5177835;28;20049;-68
2023/01/25 12:58:48;;;;;;;30.63;13.23;;;;;;;4.87;62.81;100301.06;5159572;28;20220;-67
2023/01/25 13:02:09;;;;;;;72.93;27.35;;;;;;;4.84;63.18;100301.19;5189079;28;20050;-68
2023/01/25 13:05:21;;;;;;;27.75;12.55;;;;;;;4.28;63.14;100293.44;5180277;28;20502;-67
2023/01/25 13:08:37;;;;;;;30.02;12.82;;;;;;;4.10;64.66;100280.22;5161949;28;20497;-71
2023/01/25 13:11:36;;;;;;;30.05;12.75;;;;;;;4.19;64.57;100277.16;5174080;28;20089;-68
2023/01/25 13:14:40;;;;;;;31.23;12.77;;;;;;;3.63;66.34;100277.16;5182374;28;20069;-69
2023/01/25 13:17:31;;;;;;;33.53;13.52;;;;;;;3.94;65.83;100264.34;5177475;28;20061;-71
2023/01/25 13:20:40;;;;;;;35.25;13.80;;;;;;;4.40;64.58;100282.31;5167964;28;20662;-70
2023/01/25 13:23:34;;;;;;;36.03;14.85;;;;;;;4.61;63.72;100273.44;5173884;28;20136;-68
2023/01/25 13:26:28;;;;;;;34.22;13.27;;;;;;;4.70;63.29;100270.34;5178802;28;20501;-68
2023/01/25 13:29:30;;;;;;;37.92;14.38;;;;;;;4.66;63.94;100260.91;5145333;28;20046;-68
2023/01/25 13:32:24;;;;;;;32.63;13.30;;;;;;;4.72;63.35;100273.75;5150196;28;20528;-68
2023/01/25 13:35:31;;;;;;;28.58;11.80;;;;;;;4.51;62.82;100260.81;5151353;28;20050;-67